Time;durP1;ratioP1;P1;durP2;ratioP2;P2;SDS_P1;SDS_P2;PMS_P1;PMS_P2;Temp;Humidity;BMP_temperature;BMP_pressure;BME280_temperature;BME280_humidity;BME280_pressure;Samples;Min_cycle;Max_cycle;Signal;HPM_P1;HPM_P2
2023/12/10 00:00:22;;;;;;;24.17;4.13;;;;;;;;;;5097853;28;20054;-83
2023/12/10 00:02:48;;;;;;;33.70;4.97;;;;;;;;;;5081774;28;20447;-79
2023/12/10 00:05:14;;;;;;;30.27;4.40;;;;;;;;;;5080795;28;20476;-79
2023/12/10 00:07:40;;;;;;;29.15;4.57;;;;;;;;;;5081137;28;20138;-79
2023/12/10 00:10:07;;;;;;;29.17;5.07;;;;;;;;;;5080540;28;20048;-79
2023/12/10 00:12:33;;;;;;;35.55;5.00;;;;;;;;;;5081503;28;20045;-79
2023/12/10 00:14:59;;;;;;;28.95;4.72;;;;;;;;;;5097471;28;20073;-79
2023/12/10 00:17:25;;;;;;;31.63;4.35;;;;;;;;;;5098086;28;20479;-79
2023/12/10 00:19:52;;;;;;;29.85;4.45;;;;;;;;;;5097533;28;20083;-79
2023/12/10 00:22:18;;;;;;;32.88;4.55;;;;;;;;;;5097408;28;20051;-79
2023/12/10 00:24:44;;;;;;;28.20;4.03;;;;;;;;;;5097352;28;20058;-79
2023/12/10 00:27:10;;;;;;;23.98;3.90;;;;;;;;;;5096764;28;20085;-79
2023/12/10 00:29:36;;;;;;;33.92;5.80;;;;;;;;;;5097307;28;20131;-79
2023/12/10 00:32:02;;;;;;;25.45;4.10;;;;;;;;;;5097165;28;20148;-79
2023/12/10 00:34:28;;;;;;;23.88;3.78;;;;;;;;;;5081240;28;20050;-79
2023/12/10 00:36:54;;;;;;;27.77;3.72;;;;;;;;;;5097408;28;20047;-79
2023/12/10 00:39:20;;;;;;;27.27;4.60;;;;;;;;;;5097115;28;20050;-79
2023/12/10 00:41:47;;;;;;;25.00;4.18;;;;;;;;;;5079940;28;20543;-79
2023/12/10 00:44:13;;;;;;;31.08;5.43;;;;;;;;;;5096817;28;20060;-78
2023/12/10 00:46:39;;;;;;;31.52;4.43;;;;;;;;;;5096786;28;20475;-79
2023/12/10 00:49:05;;;;;;;30.02;4.70;;;;;;;;;;5080865;28;20130;-78
2023/12/10 00:51:31;;;;;;;32.80;4.68;;;;;;;;;;5097486;28;20122;-79
2023/12/10 00:53:57;;;;;;;29.08;5.10;;;;;;;;;;5096931;28;20043;-79
2023/12/10 00:56:23;;;;;;;30.55;4.55;;;;;;;;;;5096789;28;20047;-79
2023/12/10 00:58:49;;;;;;;34.83;4.38;;;;;;;;;;5097027;28;20128;-78
2023/12/10 01:01:15;;;;;;;26.60;3.78;;;;;;;;;;5096674;28;20089;-79
2023/12/10 01:03:41;;;;;;;19.98;2.85;;;;;;;;;;5079886;28;20383;-79
2023/12/10 01:06:10;;;;;;;25.33;4.18;;;;;;;;;;5096274;28;20042;-78
2023/12/10 01:08:37;;;;;;;31.02;4.13;;;;;;;;;;5096622;28;20100;-79
2023/12/10 01:11:03;;;;;;;24.00;3.70;;;;;;;;;;5097392;28;20054;-78
2023/12/10 01:13:29;;;;;;;24.95;3.38;;;;;;;;;;5097325;28;20051;-79
2023/12/10 01:15:55;;;;;;;21.08;3.63;;;;;;;;;;5079681;28;20047;-79
2023/12/10 01:18:22;;;;;;;23.15;3.58;;;;;;;;;;5079658;28;20511;-79
2023/12/10 01:20:48;;;;;;;27.83;3.50;;;;;;;;;;5097250;28;20051;-79
2023/12/10 01:23:14;;;;;;;15.88;3.05;;;;;;;;;;5096474;28;20164;-79
2023/12/10 01:25:44;;;;;;;19.55;3.00;;;;;;;;;;5096258;28;20044;-79
2023/12/10 01:28:10;;;;;;;25.45;3.97;;;;;;;;;;5096247;28;20057;-79
2023/12/10 01:30:36;;;;;;;20.45;3.08;;;;;;;;;;5096232;28;20044;-79
2023/12/10 01:33:03;;;;;;;24.52;4.20;;;;;;;;;;5096121;28;20522;-79
2023/12/10 01:35:29;;;;;;;26.85;3.17;;;;;;;;;;5096273;28;20057;-78
2023/12/10 01:37:55;;;;;;;20.55;3.63;;;;;;;;;;5079366;28;20051;-79
2023/12/10 01:40:22;;;;;;;24.73;3.53;;;;;;;;;;5096302;28;20044;-78
2023/12/10 01:42:48;;;;;;;27.80;4.28;;;;;;;;;;5095809;28;20055;-78
2023/12/10 01:45:15;;;;;;;24.60;3.90;;;;;;;;;;5096092;28;20368;-78
2023/12/10 01:47:44;;;;;;;27.23;3.95;;;;;;;;;;5114675;28;20048;-78
2023/12/10 01:50:15;;;;;;;26.73;4.40;;;;;;;;;;5096161;28;20487;-78
2023/12/10 01:52:42;;;;;;;21.92;3.28;;;;;;;;;;5096990;28;20051;-78
2023/12/10 01:55:11;;;;;;;22.67;3.30;;;;;;;;;;5095782;28;20044;-78
2023/12/10 01:57:38;;;;;;;23.95;4.07;;;;;;;;;;5114030;28;20051;-78
2023/12/10 02:00:08;;;;;;;23.10;3.97;;;;;;;;;;5096833;28;20425;-78
2023/12/10 02:02:37;;;;;;;25.98;3.60;;;;;;;;;;5095877;28;20135;-78
2023/12/10 02:05:07;;;;;;;25.50;3.63;;;;;;;;;;5080049;28;20058;-78
2023/12/10 02:07:33;;;;;;;32.13;4.13;;;;;;;;;;5095918;28;20140;-78
2023/12/10 02:09:59;;;;;;;20.38;3.15;;;;;;;;;;5096735;28;20097;-78
2023/12/10 02:12:27;;;;;;;21.40;3.50;;;;;;;;;;5095857;28;20039;-78
2023/12/10 02:14:53;;;;;;;22.40;3.95;;;;;;;;;;5095901;28;20051;-78
2023/12/10 02:17:19;;;;;;;29.73;4.53;;;;;;;;;;5095886;28;20055;-78
2023/12/10 02:19:45;;;;;;;23.35;3.35;;;;;;;;;;5116964;28;20502;-78
2023/12/10 02:22:13;;;;;;;20.98;2.47;;;;;;;;;;5099792;28;20044;-77
2023/12/10 02:24:45;;;;;;;26.50;3.42;;;;;;;;;;5099686;28;20055;-77
2023/12/10 02:27:11;;;;;;;25.23;4.32;;;;;;;;;;5099611;28;20491;-77
2023/12/10 02:29:37;;;;;;;22.00;3.33;;;;;;;;;;5099618;28;20093;-77
2023/12/10 02:32:04;;;;;;;24.50;3.85;;;;;;;;;;5099534;28;20044;-77
2023/12/10 02:34:30;;;;;;;24.90;3.75;;;;;;;;;;5082366;28;20043;-77
2023/12/10 02:36:56;;;;;;;23.70;5.18;;;;;;;;;;5099520;28;20092;-77
2023/12/10 02:39:22;;;;;;;20.15;2.97;;;;;;;;;;5082601;28;20040;-77
2023/12/10 02:41:48;;;;;;;29.40;5.75;;;;;;;;;;5100006;28;20043;-77
2023/12/10 02:44:14;;;;;;;26.80;4.03;;;;;;;;;;5099346;28;20044;-77
2023/12/10 02:46:44;;;;;;;23.75;4.10;;;;;;;;;;5099406;28;20052;-77
2023/12/10 02:49:10;;;;;;;26.33;4.43;;;;;;;;;;5082380;28;20055;-77
2023/12/10 02:51:36;;;;;;;24.88;4.30;;;;;;;;;;5099226;28;20054;-77
2023/12/10 02:54:02;;;;;;;32.15;4.88;;;;;;;;;;5082547;28;20047;-77
2023/12/10 02:56:28;;;;;;;21.33;3.28;;;;;;;;;;5099909;28;20059;-78
2023/12/10 02:58:54;;;;;;;21.40;3.25;;;;;;;;;;5098996;28;20629;-78
2023/12/10 03:01:20;;;;;;;27.02;4.45;;;;;;;;;;5099003;28;20411;-78
2023/12/10 03:03:46;;;;;;;26.05;4.10;;;;;;;;;;5099821;28;20056;-78
2023/12/10 03:06:12;;;;;;;23.33;3.50;;;;;;;;;;5099029;28;20044;-77
2023/12/10 03:08:38;;;;;;;22.35;2.95;;;;;;;;;;5099184;28;20055;-77
2023/12/10 03:11:05;;;;;;;21.02;3.05;;;;;;;;;;5082049;28;20085;-77
2023/12/10 03:13:31;;;;;;;23.65;3.45;;;;;;;;;;5098746;28;20039;-78
2023/12/10 03:15:57;;;;;;;21.33;3.25;;;;;;;;;;5098787;28;20387;-77
2023/12/10 03:18:23;;;;;;;28.48;3.92;;;;;;;;;;5098751;28;20039;-77
2023/12/10 03:20:49;;;;;;;26.70;4.03;;;;;;;;;;5081803;28;20104;-78
2023/12/10 03:23:17;;;;;;;27.15;3.20;;;;;;;;;;5098633;28;20383;-77
2023/12/10 03:25:43;;;;;;;30.40;3.92;;;;;;;;;;5116464;28;20044;-76
2023/12/10 03:28:09;;;;;;;21.77;3.15;;;;;;;;;;5099323;28;20051;-76
2023/12/10 03:30:35;;;;;;;24.80;3.75;;;;;;;;;;5098279;28;20040;-75
2023/12/10 03:33:01;;;;;;;22.05;2.63;;;;;;;;;;5116885;28;20051;-75
2023/12/10 03:35:27;;;;;;;20.67;2.97;;;;;;;;;;5098454;28;20139;-75
2023/12/10 03:37:53;;;;;;;18.63;2.67;;;;;;;;;;5098625;28;20047;-75
2023/12/10 03:40:19;;;;;;;20.45;2.80;;;;;;;;;;5098316;28;20502;-75
2023/12/10 03:42:46;;;;;;;20.88;3.35;;;;;;;;;;5116103;28;20056;-75
2023/12/10 03:45:12;;;;;;;21.85;2.92;;;;;;;;;;5081526;28;20048;-74
2023/12/10 03:47:39;;;;;;;20.13;2.53;;;;;;;;;;5098099;28;20045;-74
2023/12/10 03:50:05;;;;;;;20.35;2.33;;;;;;;;;;5098424;28;20087;-75
2023/12/10 03:52:31;;;;;;;15.82;1.77;;;;;;;;;;5098029;28;20051;-75
2023/12/10 03:54:57;;;;;;;18.80;2.90;;;;;;;;;;5098064;28;20097;-75
2023/12/10 03:57:23;;;;;;;19.15;2.92;;;;;;;;;;5097927;28;20087;-76
2023/12/10 03:59:49;;;;;;;14.80;2.13;;;;;;;;;;5097910;28;20050;-76
2023/12/10 04:02:15;;;;;;;15.80;2.13;;;;;;;;;;5097814;28;20087;-79
2023/12/10 04:04:41;;;;;;;24.20;2.75;;;;;;;;;;5116270;28;20357;-77
2023/12/10 04:07:08;;;;;;;22.90;3.25;;;;;;;;;;5098410;28;20130;-77
2023/12/10 04:09:34;;;;;;;16.52;2.70;;;;;;;;;;5097736;28;20047;-77
2023/12/10 04:12:00;;;;;;;18.98;3.28;;;;;;;;;;5098480;28;20044;-77
2023/12/10 04:14:26;;;;;;;18.77;2.67;;;;;;;;;;5098506;28;20130;-77
2023/12/10 04:16:52;;;;;;;25.55;3.08;;;;;;;;;;5097576;28;20138;-77
2023/12/10 04:19:18;;;;;;;16.63;2.08;;;;;;;;;;5097250;28;20506;-77
2023/12/10 04:21:44;;;;;;;23.27;3.38;;;;;;;;;;5097543;28;20052;-77
2023/12/10 04:24:10;;;;;;;15.85;2.63;;;;;;;;;;5080384;28;20044;-77
2023/12/10 04:26:36;;;;;;;14.90;2.80;;;;;;;;;;5097453;28;20536;-76
2023/12/10 04:29:02;;;;;;;17.73;2.72;;;;;;;;;;5081336;28;20051;-76
2023/12/10 04:31:28;;;;;;;24.08;2.65;;;;;;;;;;5097237;28;20040;-76
2023/12/10 04:33:54;;;;;;;18.35;3.08;;;;;;;;;;5080396;28;20467;-77
2023/12/10 04:36:21;;;;;;;21.63;2.63;;;;;;;;;;5097218;28;20087;-78
2023/12/10 04:38:47;;;;;;;22.70;2.45;;;;;;;;;;5097029;28;20054;-77
2023/12/10 04:41:13;;;;;;;22.05;2.80;;;;;;;;;;5096565;28;20079;-77
2023/12/10 04:43:39;;;;;;;13.77;2.30;;;;;;;;;;5096856;28;20052;-77
2023/12/10 04:46:05;;;;;;;22.65;2.78;;;;;;;;;;5096929;28;20047;-77
2023/12/10 04:48:31;;;;;;;26.50;2.97;;;;;;;;;;5080976;28;20074;-76
2023/12/10 04:50:57;;;;;;;16.92;2.45;;;;;;;;;;5096949;28;20094;-77
2023/12/10 04:53:23;;;;;;;23.38;4.03;;;;;;;;;;5096917;28;20044;-76
2023/12/10 04:55:49;;;;;;;21.48;3.13;;;;;;;;;;5096866;28;20104;-75
2023/12/10 04:58:15;;;;;;;25.35;3.00;;;;;;;;;;5079950;28;20054;-74
2023/12/10 05:00:43;;;;;;;28.85;3.80;;;;;;;;;;5096571;28;20059;-74
2023/12/10 05:03:09;;;;;;;30.63;4.68;;;;;;;;;;5114638;28;20055;-73
2023/12/10 05:05:35;;;;;;;22.42;3.10;;;;;;;;;;5114539;28;20035;-73
2023/12/10 05:08:01;;;;;;;20.52;3.15;;;;;;;;;;5114664;28;20047;-73
2023/12/10 05:10:28;;;;;;;21.67;3.42;;;;;;;;;;5114925;28;20096;-73
2023/12/10 05:12:54;;;;;;;28.05;3.75;;;;;;;;;;5114452;28;20089;-73
2023/12/10 05:15:20;;;;;;;25.73;3.13;;;;;;;;;;5096855;28;20108;-73
2023/12/10 05:17:46;;;;;;;22.65;3.53;;;;;;;;;;5115003;28;20044;-73
2023/12/10 05:20:12;;;;;;;25.05;3.53;;;;;;;;;;5114705;28;20065;-73
2023/12/10 05:22:38;;;;;;;26.67;4.63;;;;;;;;;;5114900;28;20043;-73
2023/12/10 05:25:04;;;;;;;22.55;3.67;;;;;;;;;;5096420;28;20078;-72
2023/12/10 05:27:32;;;;;;;28.63;4.82;;;;;;;;;;5114290;28;20126;-73
2023/12/10 05:29:59;;;;;;;30.40;4.63;;;;;;;;;;5097250;28;20055;-73
2023/12/10 05:32:25;;;;;;;22.45;3.33;;;;;;;;;;5114208;28;20092;-73
2023/12/10 05:34:51;;;;;;;22.05;3.95;;;;;;;;;;5114242;28;20040;-74
2023/12/10 05:37:17;;;;;;;26.38;4.25;;;;;;;;;;5079737;28;20135;-74
2023/12/10 05:39:44;;;;;;;28.02;4.35;;;;;;;;;;5114022;28;20058;-73
2023/12/10 05:42:10;;;;;;;31.50;4.68;;;;;;;;;;5095951;28;20403;-74
2023/12/10 05:44:36;;;;;;;20.48;4.47;;;;;;;;;;5114686;28;20090;-74
2023/12/10 05:47:02;;;;;;;32.53;5.03;;;;;;;;;;5078798;28;20043;-74
2023/12/10 05:49:29;;;;;;;22.63;4.65;;;;;;;;;;5096204;28;20048;-74
2023/12/10 05:51:55;;;;;;;26.40;4.72;;;;;;;;;;5096202;28;20130;-74
2023/12/10 05:54:21;;;;;;;30.80;5.32;;;;;;;;;;5098213;28;20051;-75
2023/12/10 05:56:47;;;;;;;18.90;3.38;;;;;;;;;;5100159;28;20132;-73
2023/12/10 05:59:14;;;;;;;22.58;3.78;;;;;;;;;;5118211;28;20050;-75
2023/12/10 06:01:41;;;;;;;22.85;3.30;;;;;;;;;;5118168;28;20052;-75
2023/12/10 06:04:07;;;;;;;20.90;3.70;;;;;;;;;;5118642;28;20043;-75
2023/12/10 06:06:33;;;;;;;21.38;3.08;;;;;;;;;;5100761;28;20361;-75
2023/12/10 06:08:59;;;;;;;19.30;2.33;;;;;;;;;;5118026;28;20048;-74
2023/12/10 06:11:25;;;;;;;23.08;2.70;;;;;;;;;;5083124;28;20058;-75
2023/12/10 06:13:51;;;;;;;19.75;2.65;;;;;;;;;;5117954;28;20104;-77
2023/12/10 06:16:17;;;;;;;25.85;3.95;;;;;;;;;;5099916;28;20487;-75
2023/12/10 06:18:43;;;;;;;17.05;2.85;;;;;;;;;;5100395;28;20048;-76
2023/12/10 06:21:10;;;;;;;27.08;3.35;;;;;;;;;;5117783;28;20044;-74
2023/12/10 06:23:36;;;;;;;20.02;2.42;;;;;;;;;;5117820;28;20387;-75
2023/12/10 06:26:02;;;;;;;20.17;2.60;;;;;;;;;;5117724;28;20039;-75
2023/12/10 06:28:28;;;;;;;21.73;2.92;;;;;;;;;;5118184;28;20046;-76
2023/12/10 06:30:54;;;;;;;22.92;3.08;;;;;;;;;;5118417;28;20421;-80
2023/12/10 06:33:20;;;;;;;24.00;3.40;;;;;;;;;;5117294;28;20513;-75
2023/12/10 06:35:46;;;;;;;27.05;4.45;;;;;;;;;;5082739;28;20043;-75
2023/12/10 06:38:12;;;;;;;24.52;3.55;;;;;;;;;;5117482;28;20048;-75
2023/12/10 06:40:38;;;;;;;26.17;4.75;;;;;;;;;;5082553;28;20052;-75
2023/12/10 06:43:04;;;;;;;31.10;3.88;;;;;;;;;;5117333;28;20063;-75
2023/12/10 06:45:30;;;;;;;24.88;3.05;;;;;;;;;;5117277;28;20188;-75
2023/12/10 06:47:56;;;;;;;37.63;4.88;;;;;;;;;;5082450;28;20053;-75
2023/12/10 06:50:22;;;;;;;40.10;6.10;;;;;;;;;;5117285;28;20086;-75
2023/12/10 06:52:48;;;;;;;39.20;4.47;;;;;;;;;;5098929;28;20043;-75
2023/12/10 06:55:14;;;;;;;39.33;4.78;;;;;;;;;;5099129;28;20384;-76
2023/12/10 06:57:41;;;;;;;40.65;5.45;;;;;;;;;;5117774;28;20043;-75
2023/12/10 07:00:07;;;;;;;33.80;4.40;;;;;;;;;;5116745;28;20510;-75
2023/12/10 07:02:33;;;;;;;37.78;4.93;;;;;;;;;;5098934;28;20035;-75
2023/12/10 07:04:59;;;;;;;34.45;4.15;;;;;;;;;;5098356;28;20138;-75
2023/12/10 07:07:25;;;;;;;29.15;3.33;;;;;;;;;;5099515;28;20044;-75
2023/12/10 07:09:51;;;;;;;31.90;5.07;;;;;;;;;;5099687;28;20052;-75
2023/12/10 07:12:17;;;;;;;40.83;4.40;;;;;;;;;;5116864;28;20040;-75
2023/12/10 07:14:44;;;;;;;23.63;3.30;;;;;;;;;;5116773;28;20502;-75
2023/12/10 07:17:10;;;;;;;30.52;3.60;;;;;;;;;;5116742;28;20126;-75
2023/12/10 07:19:36;;;;;;;30.60;4.70;;;;;;;;;;5117147;28;20379;-75
2023/12/10 07:22:02;;;;;;;27.65;3.95;;;;;;;;;;5081766;28;20052;-75
2023/12/10 07:24:30;;;;;;;24.58;3.88;;;;;;;;;;5116299;28;20495;-75
2023/12/10 07:26:56;;;;;;;25.33;3.33;;;;;;;;;;5116426;28;20050;-74
2023/12/10 07:29:22;;;;;;;24.73;2.88;;;;;;;;;;5116259;28;20092;-76
2023/12/10 07:31:48;;;;;;;19.98;3.00;;;;;;;;;;5098642;28;20083;-75
2023/12/10 07:34:14;;;;;;;22.63;2.80;;;;;;;;;;5098408;28;20475;-76
2023/12/10 07:36:41;;;;;;;18.63;3.15;;;;;;;;;;5098367;28;20044;-76
2023/12/10 07:39:09;;;;;;;22.42;2.28;;;;;;;;;;5098315;28;20058;-77
2023/12/10 07:41:35;;;;;;;18.58;3.03;;;;;;;;;;5098071;28;20480;-77
2023/12/10 07:44:01;;;;;;;21.00;2.08;;;;;;;;;;5098292;28;20093;-77
2023/12/10 07:46:27;;;;;;;20.17;2.28;;;;;;;;;;5098069;28;20050;-77
2023/12/10 07:48:54;;;;;;;22.30;2.47;;;;;;;;;;5098216;28;20126;-77
2023/12/10 07:51:20;;;;;;;17.92;2.05;;;;;;;;;;5098083;28;20050;-77
2023/12/10 07:53:46;;;;;;;18.80;2.05;;;;;;;;;;5081511;28;20089;-77
2023/12/10 07:56:12;;;;;;;17.27;2.30;;;;;;;;;;5097705;28;20081;-78
2023/12/10 07:58:38;;;;;;;13.85;1.45;;;;;;;;;;5097959;28;20043;-78
2023/12/10 08:01:04;;;;;;;23.27;2.25;;;;;;;;;;5098108;28;20149;-81
2023/12/10 08:03:30;;;;;;;16.02;2.08;;;;;;;;;;5098078;28;20047;-78
2023/12/10 08:05:57;;;;;;;20.63;2.00;;;;;;;;;;5081101;28;20065;-78
2023/12/10 08:08:23;;;;;;;21.40;3.13;;;;;;;;;;5097738;28;20433;-77
2023/12/10 08:10:50;;;;;;;17.40;1.95;;;;;;;;;;5097992;28;20058;-78
2023/12/10 08:13:16;;;;;;;12.02;1.65;;;;;;;;;;5097696;28;20039;-78
2023/12/10 08:15:42;;;;;;;16.58;1.88;;;;;;;;;;5097151;28;20043;-78
2023/12/10 08:18:09;;;;;;;15.45;2.03;;;;;;;;;;5097468;28;20498;-78
2023/12/10 08:20:35;;;;;;;20.60;2.10;;;;;;;;;;5097850;28;20047;-78
2023/12/10 08:23:01;;;;;;;17.70;2.55;;;;;;;;;;5098042;28;20492;-78
2023/12/10 08:25:27;;;;;;;23.60;3.00;;;;;;;;;;5097375;28;20082;-78
2023/12/10 08:27:53;;;;;;;30.63;3.80;;;;;;;;;;5080549;28;20101;-78
2023/12/10 08:30:20;;;;;;;27.20;3.63;;;;;;;;;;5097300;28;20047;-78
2023/12/10 08:32:46;;;;;;;25.02;3.58;;;;;;;;;;5097280;28;20079;-78
2023/12/10 08:35:12;;;;;;;32.85;4.60;;;;;;;;;;5098802;28;20047;-77
2023/12/10 08:37:38;;;;;;;30.90;4.57;;;;;;;;;;5097211;28;20074;-78
2023/12/10 08:40:05;;;;;;;27.30;4.55;;;;;;;;;;5098025;28;20043;-78
2023/12/10 08:42:31;;;;;;;39.75;5.07;;;;;;;;;;5096973;28;20380;-77
2023/12/10 08:45:01;;;;;;;45.65;5.63;;;;;;;;;;5096856;28;20055;-78
2023/12/10 08:47:27;;;;;;;40.63;6.00;;;;;;;;;;5096836;28;20155;-78
2023/12/10 08:49:53;;;;;;;46.53;6.78;;;;;;;;;;5097286;28;20048;-78
2023/12/10 08:52:19;;;;;;;53.13;7.25;;;;;;;;;;5096949;28;20051;-78
2023/12/10 08:54:45;;;;;;;46.40;7.38;;;;;;;;;;5096905;28;20043;-78
2023/12/10 08:57:11;;;;;;;44.30;5.95;;;;;;;;;;5080000;28;20499;-77
2023/12/10 08:59:37;;;;;;;43.78;6.53;;;;;;;;;;5096820;28;20090;-77
2023/12/10 09:02:04;;;;;;;44.10;6.72;;;;;;;;;;5097507;28;20096;-77
2023/12/10 09:04:30;;;;;;;48.80;6.75;;;;;;;;;;5096731;28;20048;-76
2023/12/10 09:06:56;;;;;;;42.10;7.57;;;;;;;;;;5079650;28;20079;-76
2023/12/10 09:09:22;;;;;;;43.13;6.50;;;;;;;;;;5096994;28;20051;-76
2023/12/10 09:11:48;;;;;;;42.50;6.13;;;;;;;;;;5114592;28;20047;-76
2023/12/10 09:14:14;;;;;;;40.53;6.78;;;;;;;;;;5097432;28;20096;-76
2023/12/10 09:16:40;;;;;;;40.42;6.13;;;;;;;;;;5097362;28;20448;-76
2023/12/10 09:19:06;;;;;;;37.50;5.22;;;;;;;;;;5114403;28;20127;-76
2023/12/10 09:21:32;;;;;;;47.22;6.47;;;;;;;;;;5114445;28;20181;-76
2023/12/10 09:23:58;;;;;;;35.08;5.18;;;;;;;;;;5096365;28;20471;-77
2023/12/10 09:26:25;;;;;;;36.95;5.53;;;;;;;;;;5114285;28;20044;-78
2023/12/10 09:28:52;;;;;;;41.63;5.70;;;;;;;;;;5096090;28;20464;-78
2023/12/10 09:31:18;;;;;;;47.85;6.43;;;;;;;;;;5079632;28;20051;-78
2023/12/10 09:33:44;;;;;;;29.92;4.38;;;;;;;;;;5096388;28;20048;-78
2023/12/10 09:36:10;;;;;;;34.88;6.05;;;;;;;;;;5096192;28;20048;-78
2023/12/10 09:38:37;;;;;;;38.17;5.40;;;;;;;;;;5097055;28;20048;-78
2023/12/10 09:41:03;;;;;;;36.65;5.75;;;;;;;;;;5079354;28;20046;-79
2023/12/10 09:43:34;;;;;;;35.08;5.68;;;;;;;;;;5095790;28;20063;-78
2023/12/10 09:46:01;;;;;;;44.33;5.85;;;;;;;;;;5096926;28;20112;-78
2023/12/10 09:48:27;;;;;;;38.35;5.70;;;;;;;;;;5096182;28;20079;-78
2023/12/10 09:50:53;;;;;;;34.22;5.57;;;;;;;;;;5096409;28;20059;-79
2023/12/10 09:53:21;;;;;;;39.20;5.10;;;;;;;;;;5096147;28;20137;-78
2023/12/10 09:55:48;;;;;;;44.03;5.78;;;;;;;;;;5079328;28;20399;-79
2023/12/10 09:58:14;;;;;;;38.22;4.80;;;;;;;;;;5096066;28;20043;-78
2023/12/10 10:00:40;;;;;;;43.42;6.55;;;;;;;;;;5096399;28;20047;-78
2023/12/10 10:03:07;;;;;;;43.55;5.95;;;;;;;;;;5095670;28;20056;-78
2023/12/10 10:05:36;;;;;;;39.60;5.43;;;;;;;;;;5095844;28;20040;-79
2023/12/10 10:08:02;;;;;;;36.50;5.95;;;;;;;;;;5096055;28;20036;-78
2023/12/10 10:10:29;;;;;;;43.10;6.45;;;;;;;;;;5096279;28;20047;-78
2023/12/10 10:12:56;;;;;;;48.38;6.25;;;;;;;;;;5096786;28;20055;-77
2023/12/10 10:15:27;;;;;;;40.13;5.88;;;;;;;;;;5078961;28;20047;-79
2023/12/10 10:17:54;;;;;;;46.30;6.10;;;;;;;;;;5095904;28;20054;-78
2023/12/10 10:20:21;;;;;;;36.25;5.18;;;;;;;;;;5079334;28;20078;-77
2023/12/10 10:22:48;;;;;;;38.35;5.30;;;;;;;;;;5113807;28;20043;-77
2023/12/10 10:25:14;;;;;;;43.83;5.70;;;;;;;;;;5079222;28;20130;-78
2023/12/10 10:27:41;;;;;;;37.17;4.90;;;;;;;;;;5079589;28;20035;-78
2023/12/10 10:30:07;;;;;;;33.40;5.63;;;;;;;;;;5079280;28;20043;-78
2023/12/10 10:32:33;;;;;;;41.55;6.13;;;;;;;;;;5095390;28;20484;-78
2023/12/10 10:35:03;;;;;;;45.33;6.28;;;;;;;;;;5096064;28;20428;-78
2023/12/10 10:37:29;;;;;;;31.40;4.85;;;;;;;;;;5095789;28;20134;-78
2023/12/10 10:39:56;;;;;;;30.23;5.32;;;;;;;;;;5097450;28;20043;-78
2023/12/10 10:42:22;;;;;;;35.20;4.88;;;;;;;;;;5099150;28;20133;-78
2023/12/10 10:44:48;;;;;;;36.58;5.90;;;;;;;;;;5099461;28;20050;-78
2023/12/10 10:47:18;;;;;;;33.28;5.13;;;;;;;;;;5082336;28;20040;-78
2023/12/10 10:49:55;;;;;;;40.08;5.35;;;;;;;;;;5082413;28;20047;-78
2023/12/10 10:52:23;;;;;;;28.35;4.75;;;;;;;;;;5099620;28;20070;-78
2023/12/10 10:54:53;;;;;;;33.13;4.57;;;;;;;;;;5098915;28;20097;-78
2023/12/10 10:57:35;;;;;;;41.35;5.25;;;;;;;;;;5099185;28;20059;-78
2023/12/10 11:00:17;;;;;;;33.88;5.20;;;;;;;;;;5099487;28;20384;-79
2023/12/10 11:02:43;;;;;;;31.52;4.72;;;;;;;;;;5099013;28;20479;-78
2023/12/10 11:05:09;;;;;;;30.70;4.32;;;;;;;;;;5081744;28;20054;-78
2023/12/10 11:07:40;;;;;;;41.78;5.00;;;;;;;;;;5099513;28;20111;-78
2023/12/10 11:10:07;;;;;;;30.70;4.82;;;;;;;;;;5099523;28;20047;-78
2023/12/10 11:12:43;;;;;;;24.77;3.40;;;;;;;;;;5098754;28;20050;-78
2023/12/10 11:15:16;;;;;;;30.50;4.03;;;;;;;;;;5098553;28;20062;-78
2023/12/10 11:17:52;;;;;;;25.35;3.35;;;;;;;;;;5098713;28;20040;-78
2023/12/10 11:20:31;;;;;;;26.05;4.45;;;;;;;;;;5098924;28;20097;-79
2023/12/10 11:22:57;;;;;;;24.60;3.50;;;;;;;;;;5099610;28;20138;-80
2023/12/10 11:25:24;;;;;;;34.28;5.22;;;;;;;;;;5098656;28;20096;-83
2023/12/10 11:27:50;;;;;;;23.67;3.75;;;;;;;;;;5099326;28;20048;-80
2023/12/10 11:30:16;;;;;;;21.58;3.13;;;;;;;;;;5099280;28;20075;-79
2023/12/10 11:32:42;;;;;;;29.80;3.80;;;;;;;;;;5098397;28;20047;-79
2023/12/10 11:35:08;;;;;;;28.77;4.65;;;;;;;;;;5098390;28;20096;-79
2023/12/10 11:37:34;;;;;;;29.80;3.75;;;;;;;;;;5098410;28;20047;-79
2023/12/10 11:40:01;;;;;;;32.92;3.90;;;;;;;;;;5098357;28;20092;-79
2023/12/10 11:42:27;;;;;;;29.35;4.82;;;;;;;;;;5098103;28;20051;-79
2023/12/10 11:44:53;;;;;;;22.60;3.53;;;;;;;;;;5098806;28;20070;-79
2023/12/10 11:47:19;;;;;;;32.78;5.53;;;;;;;;;;5097950;28;20059;-79
2023/12/10 11:49:45;;;;;;;28.73;3.63;;;;;;;;;;5098020;28;20152;-79
2023/12/10 11:52:12;;;;;;;21.27;3.30;;;;;;;;;;5081339;28;20138;-79
2023/12/10 11:54:38;;;;;;;26.90;4.45;;;;;;;;;;5098106;28;20050;-79
2023/12/10 11:57:04;;;;;;;31.10;3.92;;;;;;;;;;5097755;28;20090;-79
2023/12/10 11:59:31;;;;;;;30.83;4.45;;;;;;;;;;5098785;28;20043;-79
2023/12/10 12:01:57;;;;;;;26.83;4.47;;;;;;;;;;5097619;28;20550;-78
2023/12/10 12:04:28;;;;;;;26.50;4.63;;;;;;;;;;5097858;28;20048;-79
2023/12/10 12:06:54;;;;;;;27.50;3.95;;;;;;;;;;5097654;28;20043;-79
2023/12/10 12:09:20;;;;;;;27.60;3.95;;;;;;;;;;5097734;28;20044;-79
2023/12/10 12:11:47;;;;;;;31.25;4.07;;;;;;;;;;5097720;28;20134;-79
2023/12/10 12:14:16;;;;;;;24.92;4.38;;;;;;;;;;5081092;28;20082;-78
2023/12/10 12:16:42;;;;;;;23.17;3.33;;;;;;;;;;5097878;28;20052;-78
2023/12/10 12:19:09;;;;;;;22.23;3.13;;;;;;;;;;5080219;28;20075;-79
2023/12/10 12:21:35;;;;;;;17.52;2.80;;;;;;;;;;5080608;28;20134;-78
2023/12/10 12:24:01;;;;;;;20.25;2.78;;;;;;;;;;5097193;28;20051;-78
2023/12/10 12:26:27;;;;;;;16.73;2.53;;;;;;;;;;5097599;28;20473;-78
2023/12/10 12:28:53;;;;;;;19.73;2.90;;;;;;;;;;5080578;28;20044;-78
2023/12/10 12:31:19;;;;;;;24.35;3.67;;;;;;;;;;5098199;28;20344;-78
2023/12/10 12:33:45;;;;;;;19.08;2.60;;;;;;;;;;5080708;28;20051;-78
2023/12/10 12:36:11;;;;;;;23.38;3.05;;;;;;;;;;5080446;28;20364;-78
2023/12/10 12:38:37;;;;;;;19.35;2.55;;;;;;;;;;5097177;28;20043;-78
2023/12/10 12:41:04;;;;;;;17.13;1.95;;;;;;;;;;5096671;28;20399;-79
2023/12/10 12:43:31;;;;;;;17.13;2.47;;;;;;;;;;5096948;28;20059;-79
2023/12/10 12:45:58;;;;;;;25.70;2.45;;;;;;;;;;5097750;28;20048;-78
2023/12/10 12:48:24;;;;;;;16.42;2.60;;;;;;;;;;5097277;28;20052;-78
2023/12/10 12:50:50;;;;;;;17.98;2.05;;;;;;;;;;5080945;28;20048;-79
2023/12/10 12:53:16;;;;;;;21.27;3.30;;;;;;;;;;5079998;28;20047;-78
2023/12/10 12:55:42;;;;;;;16.65;2.25;;;;;;;;;;5097698;28;20135;-78
2023/12/10 12:58:10;;;;;;;19.65;2.45;;;;;;;;;;5096845;28;20399;-82
2023/12/10 13:00:37;;;;;;;22.45;3.33;;;;;;;;;;5079869;28;20054;-78
2023/12/10 13:03:03;;;;;;;21.17;2.75;;;;;;;;;;5079319;28;20487;-78
2023/12/10 13:05:29;;;;;;;18.60;3.10;;;;;;;;;;5096958;28;20096;-78
2023/12/10 13:07:55;;;;;;;19.52;2.85;;;;;;;;;;5096681;28;20055;-78
2023/12/10 13:10:21;;;;;;;23.45;2.72;;;;;;;;;;5096704;28;20044;-78
2023/12/10 13:12:47;;;;;;;17.60;3.05;;;;;;;;;;5079771;28;20051;-78
2023/12/10 13:15:13;;;;;;;19.80;2.97;;;;;;;;;;5096466;28;20051;-78
2023/12/10 13:17:40;;;;;;;21.17;3.03;;;;;;;;;;5096506;28;20051;-78
2023/12/10 13:20:06;;;;;;;22.10;2.92;;;;;;;;;;5079905;28;20043;-78
2023/12/10 13:22:33;;;;;;;19.60;2.42;;;;;;;;;;5079715;28;20169;-78
2023/12/10 13:25:01;;;;;;;19.95;2.75;;;;;;;;;;5096489;28;20055;-78
2023/12/10 13:27:27;;;;;;;16.83;2.97;;;;;;;;;;5079634;28;20501;-78
2023/12/10 13:29:53;;;;;;;25.83;2.97;;;;;;;;;;5096512;28;20050;-78
2023/12/10 13:32:19;;;;;;;18.23;2.67;;;;;;;;;;5096568;28;20090;-78
2023/12/10 13:34:45;;;;;;;16.92;2.63;;;;;;;;;;5114538;28;20044;-78
2023/12/10 13:37:12;;;;;;;24.40;3.33;;;;;;;;;;5079483;28;20479;-79
2023/12/10 13:39:38;;;;;;;26.33;2.72;;;;;;;;;;5096555;28;20090;-78
2023/12/10 13:42:05;;;;;;;25.58;2.90;;;;;;;;;;5095769;28;20479;-78
2023/12/10 13:44:31;;;;;;;27.83;3.17;;;;;;;;;;5096556;28;20096;-78
2023/12/10 13:46:57;;;;;;;26.42;3.75;;;;;;;;;;5096024;28;20043;-78
2023/12/10 13:49:24;;;;;;;21.00;2.33;;;;;;;;;;5096189;28;20491;-79
2023/12/10 13:51:50;;;;;;;25.05;3.20;;;;;;;;;;5096102;28;20073;-78
2023/12/10 13:54:17;;;;;;;19.83;2.85;;;;;;;;;;5096041;28;20054;-78
2023/12/10 13:56:43;;;;;;;26.42;3.03;;;;;;;;;;5096092;28;20075;-78
2023/12/10 13:59:10;;;;;;;20.52;2.65;;;;;;;;;;5095316;28;20043;-78
2023/12/10 14:01:36;;;;;;;15.23;1.77;;;;;;;;;;5096049;28;20368;-78
2023/12/10 14:04:03;;;;;;;19.63;2.75;;;;;;;;;;5079603;28;20044;-78
2023/12/10 14:06:29;;;;;;;16.65;2.67;;;;;;;;;;5095813;28;20040;-78
2023/12/10 14:08:55;;;;;;;22.63;2.47;;;;;;;;;;5095720;28;20043;-78
2023/12/10 14:11:21;;;;;;;19.23;2.38;;;;;;;;;;5096028;28;20069;-78
2023/12/10 14:13:47;;;;;;;20.58;2.13;;;;;;;;;;5096614;28;20040;-78
2023/12/10 14:16:13;;;;;;;14.10;1.77;;;;;;;;;;5082989;28;20075;-79
2023/12/10 14:18:39;;;;;;;18.63;2.72;;;;;;;;;;5117896;28;20048;-78
2023/12/10 14:21:06;;;;;;;17.15;2.60;;;;;;;;;;5099867;28;20393;-78
2023/12/10 14:23:32;;;;;;;15.98;2.55;;;;;;;;;;5099762;28;20090;-78
2023/12/10 14:25:58;;;;;;;18.50;2.55;;;;;;;;;;5099984;28;20046;-78